Van Buren, Maine
Current Conditions -  °F | °C
As of 11:54 AM on Sunday 23 Nov 2014 (Local Time) from KCAR Reporting Station
Overcast Overcast  
Wind Chill: 33°   Ceiling: 4700
Heat Index: 39°   Visibility: 10mi
Dew Point: 29°   Wind: 9mph
Humidity: 67%   Direction: 240°WSW
Pressure: 29.99"   Gusts: NA
Location:  47.15°N, 67.94°W
Report Text: KCAR 231654Z AUTO 24008KT 10SM OVC047 04/M02 A2999 RMK AO2 SLP166 T00391017
Loading
Personal Weather Stations






























Interactive Weather Map New forecast layout! Learn more

10-Day Weather Forecast

Advertisements
Track Severe Weather on mobile